sensor_id;sensor_type;location;lat;lon;timestamp;temperature;humidity
25718;DHT22;13574;52.040;5.692;2023-03-14T00:01:17;15.00;99.90
25718;DHT22;13574;52.040;5.692;2023-03-14T00:03:42;15.30;99.90
25718;DHT22;13574;52.040;5.692;2023-03-14T00:06:09;15.40;99.90
25718;DHT22;13574;52.040;5.692;2023-03-14T00:08:35;15.00;99.90
25718;DHT22;13574;52.040;5.692;2023-03-14T00:11:20;15.00;99.90
25718;DHT22;13574;52.040;5.692;2023-03-14T00:13:47;15.10;99.90
25718;DHT22;13574;52.040;5.692;2023-03-14T00:16:14;15.00;99.90
25718;DHT22;13574;52.040;5.692;2023-03-14T00:18:40;15.10;99.90
25718;DHT22;13574;52.040;5.692;2023-03-14T00:21:07;15.10;99.90
25718;DHT22;13574;52.040;5.692;2023-03-14T00:23:35;15.00;99.90
25718;DHT22;13574;52.040;5.692;2023-03-14T00:26:04;15.10;99.90
25718;DHT22;13574;52.040;5.692;2023-03-14T00:28:30;15.10;99.90
25718;DHT22;13574;52.040;5.692;2023-03-14T00:30:56;15.20;99.90
25718;DHT22;13574;52.040;5.692;2023-03-14T00:33:22;15.20;99.90
25718;DHT22;13574;52.040;5.692;2023-03-14T00:35:59;15.30;99.90
25718;DHT22;13574;52.040;5.692;2023-03-14T00:38:26;15.00;99.90
25718;DHT22;13574;52.040;5.692;2023-03-14T00:40:52;15.00;99.90
25718;DHT22;13574;52.040;5.692;2023-03-14T00:43:19;15.00;99.90
25718;DHT22;13574;52.040;5.692;2023-03-14T00:45:47;15.10;99.90
25718;DHT22;13574;52.040;5.692;2023-03-14T00:48:13;15.30;99.90
25718;DHT22;13574;52.040;5.692;2023-03-14T00:50:39;15.30;99.90
25718;DHT22;13574;52.040;5.692;2023-03-14T00:53:04;15.20;99.90
25718;DHT22;13574;52.040;5.692;2023-03-14T00:55:30;15.20;99.90
25718;DHT22;13574;52.040;5.692;2023-03-14T00:57:56;15.20;99.90
25718;DHT22;13574;52.040;5.692;2023-03-14T01:00:22;15.10;99.90
25718;DHT22;13574;52.040;5.692;2023-03-14T01:02:47;14.90;99.90
25718;DHT22;13574;52.040;5.692;2023-03-14T01:05:13;14.70;99.90
25718;DHT22;13574;52.040;5.692;2023-03-14T01:07:39;14.50;99.90
25718;DHT22;13574;52.040;5.692;2023-03-14T01:10:05;14.10;99.90
25718;DHT22;13574;52.040;5.692;2023-03-14T01:12:31;13.90;99.90
25718;DHT22;13574;52.040;5.692;2023-03-14T01:14:57;13.90;99.90
25718;DHT22;13574;52.040;5.692;2023-03-14T01:17:23;13.70;99.90
25718;DHT22;13574;52.040;5.692;2023-03-14T01:19:48;13.80;99.90
25718;DHT22;13574;52.040;5.692;2023-03-14T01:22:14;13.80;99.90
25718;DHT22;13574;52.040;5.692;2023-03-14T01:24:40;13.90;99.90
25718;DHT22;13574;52.040;5.692;2023-03-14T01:27:05;14.00;99.90
25718;DHT22;13574;52.040;5.692;2023-03-14T01:29:31;13.90;99.90
25718;DHT22;13574;52.040;5.692;2023-03-14T01:31:57;13.70;99.90
25718;DHT22;13574;52.040;5.692;2023-03-14T01:34:23;13.60;99.90
25718;DHT22;13574;52.040;5.692;2023-03-14T01:36:48;13.40;99.90
25718;DHT22;13574;52.040;5.692;2023-03-14T01:39:14;13.40;99.90
25718;DHT22;13574;52.040;5.692;2023-03-14T01:41:40;13.40;99.90
25718;DHT22;13574;52.040;5.692;2023-03-14T01:44:12;13.50;99.90
25718;DHT22;13574;52.040;5.692;2023-03-14T01:46:46;13.60;99.90
25718;DHT22;13574;52.040;5.692;2023-03-14T01:49:22;13.30;99.90
25718;DHT22;13574;52.040;5.692;2023-03-14T01:52:17;13.30;99.90
25718;DHT22;13574;52.040;5.692;2023-03-14T01:54:47;13.50;99.90
25718;DHT22;13574;52.040;5.692;2023-03-14T01:57:19;13.30;99.90
25718;DHT22;13574;52.040;5.692;2023-03-14T01:59:58;13.00;99.90
25718;DHT22;13574;52.040;5.692;2023-03-14T02:02:26;13.00;99.90
25718;DHT22;13574;52.040;5.692;2023-03-14T02:04:54;13.00;99.90
25718;DHT22;13574;52.040;5.692;2023-03-14T02:07:35;13.10;99.90
25718;DHT22;13574;52.040;5.692;2023-03-14T02:10:04;13.10;99.90
25718;DHT22;13574;52.040;5.692;2023-03-14T02:12:31;13.00;99.90
25718;DHT22;13574;52.040;5.692;2023-03-14T02:14:57;12.80;99.90
25718;DHT22;13574;52.040;5.692;2023-03-14T02:17:24;12.70;99.90
25718;DHT22;13574;52.040;5.692;2023-03-14T02:22:53;12.80;99.90
25718;DHT22;13574;52.040;5.692;2023-03-14T02:28:03;12.70;99.90
25718;DHT22;13574;52.040;5.692;2023-03-14T02:30:30;12.50;99.90
25718;DHT22;13574;52.040;5.692;2023-03-14T02:33:17;12.50;99.90
25718;DHT22;13574;52.040;5.692;2023-03-14T02:38:33;12.50;99.90
25718;DHT22;13574;52.040;5.692;2023-03-14T02:41:01;12.60;99.90
25718;DHT22;13574;52.040;5.692;2023-03-14T02:43:27;12.60;99.90
25718;DHT22;13574;52.040;5.692;2023-03-14T02:45:54;12.40;99.90
25718;DHT22;13574;52.040;5.692;2023-03-14T02:48:26;12.50;99.90
25718;DHT22;13574;52.040;5.692;2023-03-14T02:50:58;12.40;99.90
25718;DHT22;13574;52.040;5.692;2023-03-14T02:53:34;12.40;99.90
25718;DHT22;13574;52.040;5.692;2023-03-14T02:56:00;12.40;99.90
25718;DHT22;13574;52.040;5.692;2023-03-14T02:58:27;12.30;99.90
25718;DHT22;13574;52.040;5.692;2023-03-14T03:00:53;12.40;99.90
25718;DHT22;13574;52.040;5.692;2023-03-14T03:03:19;12.40;99.90
25718;DHT22;13574;52.040;5.692;2023-03-14T03:05:48;12.50;99.90
25718;DHT22;13574;52.040;5.692;2023-03-14T03:08:15;12.60;99.90
25718;DHT22;13574;52.040;5.692;2023-03-14T03:10:41;12.50;99.90
25718;DHT22;13574;52.040;5.692;2023-03-14T03:13:06;12.70;99.90
25718;DHT22;13574;52.040;5.692;2023-03-14T03:15:32;12.80;99.90
25718;DHT22;13574;52.040;5.692;2023-03-14T03:17:58;12.80;99.90
25718;DHT22;13574;52.040;5.692;2023-03-14T03:20:23;12.90;99.90
25718;DHT22;13574;52.040;5.692;2023-03-14T03:22:49;13.00;99.90
25718;DHT22;13574;52.040;5.692;2023-03-14T03:25:15;13.00;99.90
25718;DHT22;13574;52.040;5.692;2023-03-14T03:27:41;12.80;99.90
25718;DHT22;13574;52.040;5.692;2023-03-14T03:30:08;12.90;99.90
25718;DHT22;13574;52.040;5.692;2023-03-14T03:32:34;13.00;99.90
25718;DHT22;13574;52.040;5.692;2023-03-14T03:35:00;13.30;99.90
25718;DHT22;13574;52.040;5.692;2023-03-14T03:37:25;13.20;99.90
25718;DHT22;13574;52.040;5.692;2023-03-14T03:39:51;13.20;99.90
25718;DHT22;13574;52.040;5.692;2023-03-14T03:42:17;13.30;99.90
25718;DHT22;13574;52.040;5.692;2023-03-14T03:44:44;12.90;99.90
25718;DHT22;13574;52.040;5.692;2023-03-14T03:47:10;12.90;99.90
25718;DHT22;13574;52.040;5.692;2023-03-14T03:49:35;12.60;99.90
25718;DHT22;13574;52.040;5.692;2023-03-14T03:52:01;12.80;99.90
25718;DHT22;13574;52.040;5.692;2023-03-14T03:54:27;12.70;99.90
25718;DHT22;13574;52.040;5.692;2023-03-14T03:56:54;12.70;99.90
25718;DHT22;13574;52.040;5.692;2023-03-14T03:59:20;12.70;99.90
25718;DHT22;13574;52.040;5.692;2023-03-14T04:01:46;12.70;99.90
25718;DHT22;13574;52.040;5.692;2023-03-14T04:04:12;12.70;99.90
25718;DHT22;13574;52.040;5.692;2023-03-14T04:06:38;12.80;99.90
25718;DHT22;13574;52.040;5.692;2023-03-14T04:09:04;12.70;99.90
25718;DHT22;13574;52.040;5.692;2023-03-14T04:11:30;12.90;99.90
25718;DHT22;13574;52.040;5.692;2023-03-14T04:13:55;12.70;99.90
25718;DHT22;13574;52.040;5.692;2023-03-14T04:16:23;12.90;99.90
25718;DHT22;13574;52.040;5.692;2023-03-14T04:18:49;12.90;99.90
25718;DHT22;13574;52.040;5.692;2023-03-14T04:21:15;13.00;99.90
25718;DHT22;13574;52.040;5.692;2023-03-14T04:23:41;12.90;99.90
25718;DHT22;13574;52.040;5.692;2023-03-14T04:26:06;13.00;99.90
25718;DHT22;13574;52.040;5.692;2023-03-14T04:28:32;12.90;99.90
25718;DHT22;13574;52.040;5.692;2023-03-14T04:30:58;13.00;99.90
25718;DHT22;13574;52.040;5.692;2023-03-14T04:33:23;13.00;99.90
25718;DHT22;13574;52.040;5.692;2023-03-14T04:35:53;13.20;99.90
25718;DHT22;13574;52.040;5.692;2023-03-14T04:38:19;12.90;99.90
25718;DHT22;13574;52.040;5.692;2023-03-14T04:40:45;13.10;99.90
25718;DHT22;13574;52.040;5.692;2023-03-14T04:43:11;13.10;99.90
25718;DHT22;13574;52.040;5.692;2023-03-14T04:45:40;12.90;99.90
25718;DHT22;13574;52.040;5.692;2023-03-14T04:48:06;13.00;99.90
25718;DHT22;13574;52.040;5.692;2023-03-14T04:50:32;12.80;99.90
25718;DHT22;13574;52.040;5.692;2023-03-14T04:52:58;12.70;99.90
25718;DHT22;13574;52.040;5.692;2023-03-14T04:55:24;12.70;99.90
25718;DHT22;13574;52.040;5.692;2023-03-14T04:57:49;12.80;99.90
25718;DHT22;13574;52.040;5.692;2023-03-14T05:00:15;12.90;99.90
25718;DHT22;13574;52.040;5.692;2023-03-14T05:02:43;12.70;99.90
25718;DHT22;13574;52.040;5.692;2023-03-14T05:05:10;12.70;99.90
25718;DHT22;13574;52.040;5.692;2023-03-14T05:07:36;12.60;99.90
25718;DHT22;13574;52.040;5.692;2023-03-14T05:10:02;12.70;99.90
25718;DHT22;13574;52.040;5.692;2023-03-14T05:12:28;12.40;99.90
25718;DHT22;13574;52.040;5.692;2023-03-14T05:14:53;12.50;99.90
25718;DHT22;13574;52.040;5.692;2023-03-14T05:17:19;12.70;99.90
25718;DHT22;13574;52.040;5.692;2023-03-14T05:19:45;12.70;99.90
25718;DHT22;13574;52.040;5.692;2023-03-14T05:22:11;12.70;99.90
25718;DHT22;13574;52.040;5.692;2023-03-14T05:24:37;12.50;99.90
25718;DHT22;13574;52.040;5.692;2023-03-14T05:27:03;12.50;99.90
25718;DHT22;13574;52.040;5.692;2023-03-14T05:29:29;12.40;99.90
25718;DHT22;13574;52.040;5.692;2023-03-14T05:31:55;12.60;99.90
25718;DHT22;13574;52.040;5.692;2023-03-14T05:34:20;12.60;99.90
25718;DHT22;13574;52.040;5.692;2023-03-14T05:36:46;12.70;99.90
25718;DHT22;13574;52.040;5.692;2023-03-14T05:39:12;12.70;99.90
25718;DHT22;13574;52.040;5.692;2023-03-14T05:41:37;12.70;99.90
25718;DHT22;13574;52.040;5.692;2023-03-14T05:44:03;12.80;99.90
25718;DHT22;13574;52.040;5.692;2023-03-14T05:46:29;12.70;99.90
25718;DHT22;13574;52.040;5.692;2023-03-14T05:48:57;12.80;99.90
25718;DHT22;13574;52.040;5.692;2023-03-14T05:51:22;12.60;99.90
25718;DHT22;13574;52.040;5.692;2023-03-14T05:53:48;12.60;99.90
25718;DHT22;13574;52.040;5.692;2023-03-14T05:56:14;12.60;99.90
25718;DHT22;13574;52.040;5.692;2023-03-14T05:58:40;12.70;99.90
25718;DHT22;13574;52.040;5.692;2023-03-14T06:01:06;12.50;99.90
25718;DHT22;13574;52.040;5.692;2023-03-14T06:03:32;12.80;99.90
25718;DHT22;13574;52.040;5.692;2023-03-14T06:05:58;12.80;99.90
25718;DHT22;13574;52.040;5.692;2023-03-14T06:08:24;12.70;99.90
25718;DHT22;13574;52.040;5.692;2023-03-14T06:10:51;12.60;99.90
25718;DHT22;13574;52.040;5.692;2023-03-14T06:13:16;12.70;99.90
25718;DHT22;13574;52.040;5.692;2023-03-14T06:15:42;12.30;99.90
25718;DHT22;13574;52.040;5.692;2023-03-14T06:18:08;12.30;99.90
25718;DHT22;13574;52.040;5.692;2023-03-14T06:20:36;12.30;99.90
25718;DHT22;13574;52.040;5.692;2023-03-14T06:23:04;12.30;99.90
25718;DHT22;13574;52.040;5.692;2023-03-14T06:25:31;12.50;99.90
25718;DHT22;13574;52.040;5.692;2023-03-14T06:27:57;12.20;99.90
25718;DHT22;13574;52.040;5.692;2023-03-14T06:30:22;12.10;99.90
25718;DHT22;13574;52.040;5.692;2023-03-14T06:32:48;12.20;99.90
25718;DHT22;13574;52.040;5.692;2023-03-14T06:35:14;12.30;99.90
25718;DHT22;13574;52.040;5.692;2023-03-14T06:37:41;12.50;99.90
25718;DHT22;13574;52.040;5.692;2023-03-14T06:40:08;12.60;99.90
25718;DHT22;13574;52.040;5.692;2023-03-14T06:42:34;12.50;99.90
25718;DHT22;13574;52.040;5.692;2023-03-14T06:44:59;12.60;99.90
25718;DHT22;13574;52.040;5.692;2023-03-14T06:47:25;12.60;99.90
25718;DHT22;13574;52.040;5.692;2023-03-14T06:49:51;12.60;99.90
25718;DHT22;13574;52.040;5.692;2023-03-14T06:52:16;12.70;99.90
25718;DHT22;13574;52.040;5.692;2023-03-14T06:54:42;12.70;99.90
25718;DHT22;13574;52.040;5.692;2023-03-14T06:57:07;12.70;99.90
25718;DHT22;13574;52.040;5.692;2023-03-14T06:59:33;12.80;99.90
25718;DHT22;13574;52.040;5.692;2023-03-14T07:01:59;12.80;99.90
25718;DHT22;13574;52.040;5.692;2023-03-14T07:04:24;12.90;99.90
25718;DHT22;13574;52.040;5.692;2023-03-14T07:06:50;12.90;99.90
25718;DHT22;13574;52.040;5.692;2023-03-14T07:09:16;12.80;99.90
25718;DHT22;13574;52.040;5.692;2023-03-14T07:11:45;12.70;99.90
25718;DHT22;13574;52.040;5.692;2023-03-14T07:14:10;12.70;99.90
25718;DHT22;13574;52.040;5.692;2023-03-14T07:16:36;12.60;99.90
25718;DHT22;13574;52.040;5.692;2023-03-14T07:19:03;12.50;99.90
25718;DHT22;13574;52.040;5.692;2023-03-14T07:21:29;12.10;99.90
25718;DHT22;13574;52.040;5.692;2023-03-14T07:23:54;12.00;99.90
25718;DHT22;13574;52.040;5.692;2023-03-14T07:26:20;11.90;99.90
25718;DHT22;13574;52.040;5.692;2023-03-14T07:28:46;11.80;99.90
25718;DHT22;13574;52.040;5.692;2023-03-14T07:31:11;11.50;99.90
25718;DHT22;13574;52.040;5.692;2023-03-14T07:33:37;11.40;99.90
25718;DHT22;13574;52.040;5.692;2023-03-14T07:36:03;11.60;99.90
25718;DHT22;13574;52.040;5.692;2023-03-14T07:38:29;11.10;99.90
25718;DHT22;13574;52.040;5.692;2023-03-14T07:41:03;10.80;99.90
25718;DHT22;13574;52.040;5.692;2023-03-14T07:43:29;10.40;99.90
25718;DHT22;13574;52.040;5.692;2023-03-14T07:45:55;10.40;99.90
25718;DHT22;13574;52.040;5.692;2023-03-14T07:48:21;10.70;99.90
25718;DHT22;13574;52.040;5.692;2023-03-14T07:50:51;10.90;99.90
25718;DHT22;13574;52.040;5.692;2023-03-14T07:53:17;11.00;99.90
25718;DHT22;13574;52.040;5.692;2023-03-14T07:55:43;11.00;99.90
25718;DHT22;13574;52.040;5.692;2023-03-14T07:58:09;11.20;99.90
25718;DHT22;13574;52.040;5.692;2023-03-14T08:00:35;11.10;99.90
25718;DHT22;13574;52.040;5.692;2023-03-14T08:03:01;11.20;99.90
25718;DHT22;13574;52.040;5.692;2023-03-14T08:05:26;10.40;99.90
25718;DHT22;13574;52.040;5.692;2023-03-14T08:07:52;9.50;99.90
25718;DHT22;13574;52.040;5.692;2023-03-14T08:10:18;9.70;99.90
25718;DHT22;13574;52.040;5.692;2023-03-14T08:12:53;10.10;99.90
25718;DHT22;13574;52.040;5.692;2023-03-14T08:15:19;10.60;99.90
25718;DHT22;13574;52.040;5.692;2023-03-14T08:17:45;10.50;99.90
25718;DHT22;13574;52.040;5.692;2023-03-14T08:20:20;10.00;99.90
25718;DHT22;13574;52.040;5.692;2023-03-14T08:22:49;9.90;99.90
25718;DHT22;13574;52.040;5.692;2023-03-14T08:25:16;9.60;99.90
25718;DHT22;13574;52.040;5.692;2023-03-14T08:27:44;9.80;99.90
25718;DHT22;13574;52.040;5.692;2023-03-14T08:30:12;9.80;99.90
25718;DHT22;13574;52.040;5.692;2023-03-14T08:32:38;9.50;99.90
25718;DHT22;13574;52.040;5.692;2023-03-14T08:35:05;9.70;99.90
25718;DHT22;13574;52.040;5.692;2023-03-14T08:37:32;9.90;99.90
25718;DHT22;13574;52.040;5.692;2023-03-14T08:39:58;9.10;99.90
25718;DHT22;13574;52.040;5.692;2023-03-14T08:42:24;9.10;99.90
25718;DHT22;13574;52.040;5.692;2023-03-14T08:44:51;9.20;99.90
25718;DHT22;13574;52.040;5.692;2023-03-14T08:47:16;9.10;99.90
25718;DHT22;13574;52.040;5.692;2023-03-14T08:49:42;8.30;99.90
25718;DHT22;13574;52.040;5.692;2023-03-14T08:52:08;8.20;99.90
25718;DHT22;13574;52.040;5.692;2023-03-14T08:54:34;8.10;99.90
25718;DHT22;13574;52.040;5.692;2023-03-14T08:56:59;8.60;99.90
25718;DHT22;13574;52.040;5.692;2023-03-14T08:59:25;8.70;99.90
25718;DHT22;13574;52.040;5.692;2023-03-14T09:01:50;9.00;99.90
25718;DHT22;13574;52.040;5.692;2023-03-14T09:04:17;8.30;99.90
25718;DHT22;13574;52.040;5.692;2023-03-14T09:06:43;8.60;99.90
25718;DHT22;13574;52.040;5.692;2023-03-14T09:09:09;8.90;99.90
25718;DHT22;13574;52.040;5.692;2023-03-14T09:11:34;9.20;99.90
25718;DHT22;13574;52.040;5.692;2023-03-14T09:14:00;9.20;99.90
25718;DHT22;13574;52.040;5.692;2023-03-14T09:16:26;9.10;99.90
25718;DHT22;13574;52.040;5.692;2023-03-14T09:18:52;9.20;99.90
25718;DHT22;13574;52.040;5.692;2023-03-14T09:21:20;9.30;99.90
25718;DHT22;13574;52.040;5.692;2023-03-14T09:23:46;9.60;99.90
25718;DHT22;13574;52.040;5.692;2023-03-14T09:26:12;10.00;99.90
25718;DHT22;13574;52.040;5.692;2023-03-14T09:28:38;10.50;99.90
25718;DHT22;13574;52.040;5.692;2023-03-14T09:31:08;10.20;99.90
25718;DHT22;13574;52.040;5.692;2023-03-14T09:33:34;10.40;99.90
25718;DHT22;13574;52.040;5.692;2023-03-14T09:36:00;10.00;99.90
25718;DHT22;13574;52.040;5.692;2023-03-14T09:38:27;9.30;99.90
25718;DHT22;13574;52.040;5.692;2023-03-14T09:40:53;9.10;99.90
25718;DHT22;13574;52.040;5.692;2023-03-14T09:43:21;9.60;99.90
25718;DHT22;13574;52.040;5.692;2023-03-14T09:45:48;9.20;99.90
25718;DHT22;13574;52.040;5.692;2023-03-14T09:48:24;8.70;99.90
25718;DHT22;13574;52.040;5.692;2023-03-14T09:50:54;8.90;99.90
25718;DHT22;13574;52.040;5.692;2023-03-14T09:53:24;9.20;99.90
25718;DHT22;13574;52.040;5.692;2023-03-14T09:55:51;9.60;99.90
25718;DHT22;13574;52.040;5.692;2023-03-14T09:58:23;10.10;99.90
25718;DHT22;13574;52.040;5.692;2023-03-14T10:00:52;10.10;99.90
25718;DHT22;13574;52.040;5.692;2023-03-14T10:03:33;10.50;99.90
25718;DHT22;13574;52.040;5.692;2023-03-14T10:06:00;10.60;99.90
25718;DHT22;13574;52.040;5.692;2023-03-14T10:08:26;11.20;99.90
25718;DHT22;13574;52.040;5.692;2023-03-14T10:10:52;10.30;99.90
25718;DHT22;13574;52.040;5.692;2023-03-14T10:13:24;10.40;99.90
25718;DHT22;13574;52.040;5.692;2023-03-14T10:15:54;9.60;99.90
25718;DHT22;13574;52.040;5.692;2023-03-14T10:18:22;9.80;99.90
25718;DHT22;13574;52.040;5.692;2023-03-14T10:20:52;10.00;99.90
25718;DHT22;13574;52.040;5.692;2023-03-14T10:23:29;10.60;99.90
25718;DHT22;13574;52.040;5.692;2023-03-14T10:26:03;10.20;99.90
25718;DHT22;13574;52.040;5.692;2023-03-14T10:28:48;10.60;99.90
25718;DHT22;13574;52.040;5.692;2023-03-14T10:31:17;10.90;99.90
25718;DHT22;13574;52.040;5.692;2023-03-14T10:34:00;10.60;99.90
25718;DHT22;13574;52.040;5.692;2023-03-14T10:36:28;9.90;99.90
25718;DHT22;13574;52.040;5.692;2023-03-14T10:39:27;9.70;99.90
25718;DHT22;13574;52.040;5.692;2023-03-14T10:41:56;9.70;99.90
25718;DHT22;13574;52.040;5.692;2023-03-14T10:44:27;9.60;99.90
25718;DHT22;13574;52.040;5.692;2023-03-14T10:47:02;9.50;99.90
25718;DHT22;13574;52.040;5.692;2023-03-14T10:49:36;8.90;99.90
25718;DHT22;13574;52.040;5.692;2023-03-14T10:52:17;9.10;99.90
25718;DHT22;13574;52.040;5.692;2023-03-14T10:54:59;9.40;99.90
25718;DHT22;13574;52.040;5.692;2023-03-14T10:57:26;9.50;99.90
25718;DHT22;13574;52.040;5.692;2023-03-14T10:59:53;10.00;99.90
25718;DHT22;13574;52.040;5.692;2023-03-14T11:02:38;10.00;99.90
25718;DHT22;13574;52.040;5.692;2023-03-14T11:08:43;9.50;99.90
25718;DHT22;13574;52.040;5.692;2023-03-14T11:11:24;10.10;99.90
25718;DHT22;13574;52.040;5.692;2023-03-14T11:27:22;9.60;99.90
25718;DHT22;13574;52.040;5.692;2023-03-14T11:34:55;9.40;99.90
25718;DHT22;13574;52.040;5.692;2023-03-14T11:37:34;9.70;99.90
25718;DHT22;13574;52.040;5.692;2023-03-14T11:40:14;10.10;99.90
25718;DHT22;13574;52.040;5.692;2023-03-14T11:42:43;9.70;99.90
25718;DHT22;13574;52.040;5.692;2023-03-14T11:45:18;9.60;99.90
25718;DHT22;13574;52.040;5.692;2023-03-14T11:47:45;9.70;99.90
25718;DHT22;13574;52.040;5.692;2023-03-14T11:50:18;9.20;99.90
25718;DHT22;13574;52.040;5.692;2023-03-14T11:53:13;9.10;99.90
25718;DHT22;13574;52.040;5.692;2023-03-14T11:55:41;9.30;99.90
25718;DHT22;13574;52.040;5.692;2023-03-14T11:58:24;9.70;99.90
25718;DHT22;13574;52.040;5.692;2023-03-14T12:00:53;9.50;99.90
25718;DHT22;13574;52.040;5.692;2023-03-14T12:08:56;9.50;99.90
25718;DHT22;13574;52.040;5.692;2023-03-14T12:14:26;9.20;99.90
25718;DHT22;13574;52.040;5.692;2023-03-14T12:16:54;9.40;99.90
25718;DHT22;13574;52.040;5.692;2023-03-14T12:21:57;9.60;99.90
25718;DHT22;13574;52.040;5.692;2023-03-14T12:24:27;9.50;99.90
25718;DHT22;13574;52.040;5.692;2023-03-14T12:27:00;9.50;99.90
25718;DHT22;13574;52.040;5.692;2023-03-14T12:29:25;9.50;99.90
25718;DHT22;13574;52.040;5.692;2023-03-14T12:32:24;9.40;99.90
25718;DHT22;13574;52.040;5.692;2023-03-14T12:34:50;9.00;99.90
25718;DHT22;13574;52.040;5.692;2023-03-14T12:37:33;9.10;99.90
25718;DHT22;13574;52.040;5.692;2023-03-14T12:42:57;10.10;99.90
25718;DHT22;13574;52.040;5.692;2023-03-14T12:45:35;10.50;99.90
25718;DHT22;13574;52.040;5.692;2023-03-14T12:48:22;10.70;99.90
25718;DHT22;13574;52.040;5.692;2023-03-14T12:51:14;9.80;99.90
25718;DHT22;13574;52.040;5.692;2023-03-14T12:53:55;9.70;99.90
25718;DHT22;13574;52.040;5.692;2023-03-14T12:56:40;10.20;99.90
25718;DHT22;13574;52.040;5.692;2023-03-14T12:59:32;11.00;99.90
25718;DHT22;13574;52.040;5.692;2023-03-14T13:04:45;10.30;99.90
25718;DHT22;13574;52.040;5.692;2023-03-14T13:07:15;10.00;99.90
25718;DHT22;13574;52.040;5.692;2023-03-14T13:15:30;10.40;99.90
25718;DHT22;13574;52.040;5.692;2023-03-14T13:18:02;10.30;99.90
25718;DHT22;13574;52.040;5.692;2023-03-14T13:23:23;9.80;98.60
25718;DHT22;13574;52.040;5.692;2023-03-14T13:25:49;10.00;99.30
25718;DHT22;13574;52.040;5.692;2023-03-14T13:28:15;9.80;99.90
25718;DHT22;13574;52.040;5.692;2023-03-14T13:30:47;10.20;99.90
25718;DHT22;13574;52.040;5.692;2023-03-14T13:33:15;10.40;99.40
25718;DHT22;13574;52.040;5.692;2023-03-14T13:35:59;10.40;98.80
25718;DHT22;13574;52.040;5.692;2023-03-14T13:38:29;10.60;99.70
25718;DHT22;13574;52.040;5.692;2023-03-14T13:40:56;10.80;99.20
25718;DHT22;13574;52.040;5.692;2023-03-14T13:46:14;10.40;98.90
25718;DHT22;13574;52.040;5.692;2023-03-14T13:48:51;9.90;99.70
25718;DHT22;13574;52.040;5.692;2023-03-14T13:51:19;10.00;98.60
25718;DHT22;13574;52.040;5.692;2023-03-14T13:53:53;10.10;99.40
25718;DHT22;13574;52.040;5.692;2023-03-14T13:56:24;10.00;99.90
25718;DHT22;13574;52.040;5.692;2023-03-14T13:58:51;10.20;99.40
25718;DHT22;13574;52.040;5.692;2023-03-14T14:03:52;10.20;98.70
25718;DHT22;13574;52.040;5.692;2023-03-14T14:06:39;10.40;97.30
25718;DHT22;13574;52.040;5.692;2023-03-14T14:09:28;10.40;98.90
25718;DHT22;13574;52.040;5.692;2023-03-14T14:12:16;10.00;98.30
25718;DHT22;13574;52.040;5.692;2023-03-14T14:17:46;10.20;99.30
25718;DHT22;13574;52.040;5.692;2023-03-14T14:20:30;10.30;98.60
25718;DHT22;13574;52.040;5.692;2023-03-14T14:23:01;10.70;99.90
25718;DHT22;13574;52.040;5.692;2023-03-14T14:25:29;10.80;98.50
25718;DHT22;13574;52.040;5.692;2023-03-14T14:27:55;10.30;97.40
25718;DHT22;13574;52.040;5.692;2023-03-14T14:32:49;10.00;96.60
25718;DHT22;13574;52.040;5.692;2023-03-14T14:35:25;10.00;96.50
25718;DHT22;13574;52.040;5.692;2023-03-14T14:37:51;9.60;97.50
25718;DHT22;13574;52.040;5.692;2023-03-14T14:40:22;9.10;97.30
25718;DHT22;13574;52.040;5.692;2023-03-14T14:42:50;9.20;98.60
25718;DHT22;13574;52.040;5.692;2023-03-14T14:45:23;9.20;97.90
25718;DHT22;13574;52.040;5.692;2023-03-14T14:48:10;9.50;97.80
25718;DHT22;13574;52.040;5.692;2023-03-14T14:50:56;9.30;96.50
25718;DHT22;13574;52.040;5.692;2023-03-14T14:53:36;9.40;96.70
25718;DHT22;13574;52.040;5.692;2023-03-14T14:56:25;9.70;98.00
25718;DHT22;13574;52.040;5.692;2023-03-14T14:58:57;9.60;96.40
25718;DHT22;13574;52.040;5.692;2023-03-14T15:01:25;9.40;97.80
25718;DHT22;13574;52.040;5.692;2023-03-14T15:03:56;9.50;97.30
25718;DHT22;13574;52.040;5.692;2023-03-14T15:06:24;9.30;98.00
25718;DHT22;13574;52.040;5.692;2023-03-14T15:08:52;8.70;97.50
25718;DHT22;13574;52.040;5.692;2023-03-14T15:11:23;8.60;98.50
25718;DHT22;13574;52.040;5.692;2023-03-14T15:13:49;9.20;99.20
25718;DHT22;13574;52.040;5.692;2023-03-14T15:16:28;9.60;97.60
25718;DHT22;13574;52.040;5.692;2023-03-14T15:18:59;9.90;98.20
25718;DHT22;13574;52.040;5.692;2023-03-14T15:21:28;10.20;99.30
25718;DHT22;13574;52.040;5.692;2023-03-14T15:23:55;10.50;98.40
25718;DHT22;13574;52.040;5.692;2023-03-14T15:26:26;10.80;99.10
25718;DHT22;13574;52.040;5.692;2023-03-14T15:28:53;10.00;96.90
25718;DHT22;13574;52.040;5.692;2023-03-14T15:31:20;10.00;98.50
25718;DHT22;13574;52.040;5.692;2023-03-14T15:33:47;10.00;98.70
25718;DHT22;13574;52.040;5.692;2023-03-14T15:36:23;10.20;99.40
25718;DHT22;13574;52.040;5.692;2023-03-14T15:38:54;9.80;98.00
25718;DHT22;13574;52.040;5.692;2023-03-14T15:41:20;9.60;99.00
25718;DHT22;13574;52.040;5.692;2023-03-14T15:43:50;10.00;99.70
25718;DHT22;13574;52.040;5.692;2023-03-14T15:46:16;10.20;99.00
25718;DHT22;13574;52.040;5.692;2023-03-14T15:48:44;10.30;98.60
25718;DHT22;13574;52.040;5.692;2023-03-14T15:51:10;10.20;98.70
25718;DHT22;13574;52.040;5.692;2023-03-14T15:53:36;10.30;98.20
25718;DHT22;13574;52.040;5.692;2023-03-14T15:56:05;10.30;98.20
25718;DHT22;13574;52.040;5.692;2023-03-14T15:58:32;10.30;97.20
25718;DHT22;13574;52.040;5.692;2023-03-14T16:01:00;9.90;97.00
25718;DHT22;13574;52.040;5.692;2023-03-14T16:03:27;9.50;97.50
25718;DHT22;13574;52.040;5.692;2023-03-14T16:05:53;9.20;97.20
25718;DHT22;13574;52.040;5.692;2023-03-14T16:08:18;9.20;97.50
25718;DHT22;13574;52.040;5.692;2023-03-14T16:10:45;9.50;99.40
25718;DHT22;13574;52.040;5.692;2023-03-14T16:13:12;9.70;99.10
25718;DHT22;13574;52.040;5.692;2023-03-14T16:15:38;9.60;96.60
25718;DHT22;13574;52.040;5.692;2023-03-14T16:18:03;9.20;98.50
25718;DHT22;13574;52.040;5.692;2023-03-14T16:20:29;8.80;97.80
25718;DHT22;13574;52.040;5.692;2023-03-14T16:22:55;9.10;99.80
25718;DHT22;13574;52.040;5.692;2023-03-14T16:25:21;9.20;98.30
25718;DHT22;13574;52.040;5.692;2023-03-14T16:27:47;9.00;97.70
25718;DHT22;13574;52.040;5.692;2023-03-14T16:30:13;9.10;99.50
25718;DHT22;13574;52.040;5.692;2023-03-14T16:32:39;9.40;98.70
25718;DHT22;13574;52.040;5.692;2023-03-14T16:35:05;9.90;99.90
25718;DHT22;13574;52.040;5.692;2023-03-14T16:37:31;10.00;98.30
25718;DHT22;13574;52.040;5.692;2023-03-14T16:39:57;9.70;98.20
25718;DHT22;13574;52.040;5.692;2023-03-14T16:42:22;9.70;98.40
25718;DHT22;13574;52.040;5.692;2023-03-14T16:44:48;9.80;98.30
25718;DHT22;13574;52.040;5.692;2023-03-14T16:47:14;9.40;97.20
25718;DHT22;13574;52.040;5.692;2023-03-14T16:49:40;9.40;98.30
25718;DHT22;13574;52.040;5.692;2023-03-14T16:52:06;9.60;99.90